createdAt,value
2022-12-17T00:00:02.607Z,17.43
2022-12-17T00:02:47.184Z,16.90
2022-12-17T00:05:29.905Z,16.10
2022-12-17T00:08:13.808Z,16.07
2022-12-17T00:10:56.326Z,17.10
2022-12-17T00:13:39.407Z,16.53
2022-12-17T00:16:24.970Z,15.30
2022-12-17T00:19:07.685Z,16.67
2022-12-17T00:21:52.977Z,15.60
2022-12-17T00:24:39.226Z,15.63
2022-12-17T00:27:21.725Z,16.37
2022-12-17T00:30:04.535Z,16.60
2022-12-17T00:32:49.702Z,17.17
2022-12-17T00:35:33.454Z,18.40
2022-12-17T00:38:16.072Z,16.90
2022-12-17T00:40:58.648Z,17.60
2022-12-17T00:43:46.918Z,20.70
2022-12-17T00:46:30.660Z,17.37
2022-12-17T00:49:15.864Z,19.90
2022-12-17T00:51:58.399Z,21.40
2022-12-17T00:54:52.981Z,23.70
2022-12-17T00:57:39.003Z,22.33
2022-12-17T01:00:24.163Z,19.90
2022-12-17T01:03:06.760Z,22.00
2022-12-17T01:05:51.913Z,20.20
2022-12-17T01:08:34.514Z,16.33
2022-12-17T01:11:18.586Z,16.27
2022-12-17T01:14:01.369Z,18.40
2022-12-17T01:16:44.556Z,18.23
2022-12-17T01:19:27.096Z,20.30
2022-12-17T01:22:12.227Z,16.97
2022-12-17T01:24:54.765Z,19.93
2022-12-17T01:27:38.650Z,21.73
2022-12-17T01:30:23.517Z,19.13
2022-12-17T01:33:06.023Z,20.20
2022-12-17T01:35:48.727Z,18.53
2022-12-17T01:38:35.114Z,17.40
2022-12-17T01:41:18.816Z,19.30
2022-12-17T01:44:02.169Z,17.00
2022-12-17T01:46:51.202Z,18.83
2022-12-17T01:49:36.316Z,18.73
2022-12-17T01:52:20.558Z,19.10
2022-12-17T01:55:05.889Z,19.90
2022-12-17T01:57:49.387Z,19.30
2022-12-17T02:00:34.004Z,19.57
2022-12-17T02:03:17.891Z,19.60
2022-12-17T02:06:17.033Z,15.20
2022-12-17T02:09:16.021Z,20.07
2022-12-17T02:12:14.807Z,16.67
2022-12-17T02:15:12.515Z,17.60
2022-12-17T02:18:03.181Z,18.70
2022-12-17T02:20:53.898Z,18.03
2022-12-17T02:23:56.942Z,21.40
2022-12-17T02:26:52.538Z,21.00
2022-12-17T02:29:38.912Z,19.60
2022-12-17T02:32:29.131Z,18.83
2022-12-17T02:35:13.591Z,17.07
2022-12-17T02:38:02.581Z,20.47
2022-12-17T02:40:45.449Z,21.70
2022-12-17T02:43:31.275Z,20.10
2022-12-17T02:46:14.292Z,22.90
2022-12-17T02:48:57.153Z,26.43
2022-12-17T02:51:41.708Z,20.83
2022-12-17T02:54:24.580Z,22.27
2022-12-17T02:57:06.907Z,20.30
2022-12-17T02:59:52.083Z,26.17
2022-12-17T03:02:34.814Z,21.33
2022-12-17T03:05:43.573Z,22.73
2022-12-17T03:08:20.307Z,21.20
2022-12-17T03:11:02.893Z,21.10
2022-12-17T03:13:45.894Z,21.30
2022-12-17T03:16:37.470Z,19.17
2022-12-17T03:19:20.875Z,20.73
2022-12-17T03:22:06.220Z,24.50
2022-12-17T03:24:48.793Z,21.80
2022-12-17T03:27:34.546Z,22.90
2022-12-17T03:30:17.380Z,22.53
2022-12-17T03:33:02.454Z,23.40
2022-12-17T03:35:44.980Z,26.07
2022-12-17T03:38:28.387Z,25.40
2022-12-17T03:41:11.276Z,23.40
2022-12-17T03:43:53.818Z,27.70
2022-12-17T03:46:36.401Z,24.50
2022-12-17T03:49:21.962Z,22.13
2022-12-17T03:52:04.457Z,22.50
2022-12-17T03:54:46.993Z,23.77
2022-12-17T03:57:30.021Z,23.67
2022-12-17T04:00:12.525Z,25.97
2022-12-17T04:02:55.775Z,25.17
2022-12-17T04:05:41.157Z,23.23
2022-12-17T04:08:23.680Z,24.00
2022-12-17T04:11:06.201Z,24.43
2022-12-17T04:13:48.967Z,22.93
2022-12-17T04:16:31.616Z,22.20
2022-12-17T04:19:14.120Z,20.77
2022-12-17T04:21:59.226Z,21.33
2022-12-17T04:24:41.714Z,20.30
2022-12-17T04:27:24.232Z,21.27
2022-12-17T04:30:15.499Z,22.40
2022-12-17T04:32:57.984Z,20.83
2022-12-17T04:35:40.630Z,19.43
2022-12-17T04:38:25.714Z,21.77
2022-12-17T04:41:16.818Z,19.60
2022-12-17T04:44:02.924Z,21.87
2022-12-17T04:46:58.110Z,21.70
2022-12-17T04:49:40.575Z,21.30
2022-12-17T04:52:23.177Z,19.57
2022-12-17T04:55:08.305Z,20.40
2022-12-17T04:57:50.957Z,21.53
2022-12-17T05:00:35.796Z,22.77
2022-12-17T05:03:26.121Z,22.40
2022-12-17T05:06:08.700Z,22.33
2022-12-17T05:08:51.487Z,22.37
2022-12-17T05:11:38.552Z,24.20
2022-12-17T05:14:21.093Z,20.93
2022-12-17T05:17:03.571Z,23.53
2022-12-17T05:19:46.032Z,21.97
2022-12-17T05:22:28.544Z,21.37
2022-12-17T05:25:11.015Z,24.77
2022-12-17T05:27:56.084Z,22.80
2022-12-17T05:30:38.647Z,24.07
2022-12-17T05:33:21.132Z,26.50
2022-12-17T05:36:03.969Z,25.50
2022-12-17T05:38:46.259Z,30.57
2022-12-17T05:41:28.758Z,26.33
2022-12-17T05:44:13.997Z,28.87
2022-12-17T05:46:56.518Z,29.10
2022-12-17T05:49:39.009Z,28.17
2022-12-17T05:52:21.503Z,27.20
2022-12-17T05:55:03.996Z,35.17
2022-12-17T05:57:48.518Z,32.70
2022-12-17T06:00:36.968Z,29.30
2022-12-17T06:03:20.445Z,29.70
2022-12-17T06:06:03.491Z,26.97
2022-12-17T06:08:46.107Z,33.77
2022-12-17T06:11:28.691Z,34.97
2022-12-17T06:14:11.337Z,28.73
2022-12-17T06:17:08.043Z,30.57
2022-12-17T06:20:05.172Z,26.20
2022-12-17T06:22:47.667Z,30.20
2022-12-17T06:25:30.475Z,26.50
2022-12-17T06:28:17.170Z,30.80
2022-12-17T06:31:06.630Z,28.03
2022-12-17T06:33:51.717Z,31.93
2022-12-17T06:36:34.260Z,27.43
2022-12-17T06:39:16.767Z,24.17
2022-12-17T06:42:04.302Z,26.43
2022-12-17T06:44:47.571Z,28.27
2022-12-17T06:47:30.319Z,26.13
2022-12-17T06:50:15.375Z,26.63
2022-12-17T06:52:57.864Z,25.97
2022-12-17T06:55:43.030Z,27.03
2022-12-17T06:58:25.532Z,27.93
2022-12-17T07:01:08.257Z,25.93
2022-12-17T07:03:50.769Z,25.50
2022-12-17T07:06:35.844Z,26.17
2022-12-17T07:09:27.084Z,26.83
2022-12-17T07:12:09.611Z,25.20
2022-12-17T07:14:52.138Z,30.23
2022-12-17T07:17:34.858Z,25.57
2022-12-17T07:20:17.404Z,31.77
2022-12-17T07:23:02.560Z,29.47
2022-12-17T07:25:46.336Z,28.50
2022-12-17T07:28:29.159Z,28.60
2022-12-17T07:31:11.981Z,25.63
2022-12-17T07:33:54.570Z,25.33
2022-12-17T07:36:37.180Z,26.20
2022-12-17T07:39:22.255Z,25.83
2022-12-17T07:42:04.728Z,28.47
2022-12-17T07:44:47.210Z,28.33
2022-12-17T07:47:29.830Z,32.10
2022-12-17T07:50:12.395Z,26.00
2022-12-17T07:53:00.799Z,30.30
2022-12-17T07:55:46.016Z,31.50
2022-12-17T07:58:28.726Z,29.17
2022-12-17T08:01:14.560Z,34.20
2022-12-17T08:03:56.952Z,29.43
2022-12-17T08:06:39.593Z,32.70
2022-12-17T08:09:22.209Z,28.83
2022-12-17T08:12:07.447Z,31.90
2022-12-17T08:14:49.978Z,30.83
2022-12-17T08:17:32.591Z,29.83
2022-12-17T08:20:15.463Z,28.50
2022-12-17T08:22:58.180Z,28.63
2022-12-17T08:25:40.684Z,30.10
2022-12-17T08:28:49.692Z,30.40
2022-12-17T08:31:28.615Z,27.30
2022-12-17T08:34:11.145Z,29.40
2022-12-17T08:36:53.642Z,27.00
2022-12-17T08:39:36.188Z,29.27
2022-12-17T08:42:18.811Z,31.07
2022-12-17T08:45:03.916Z,34.33
2022-12-17T08:47:46.388Z,29.30
2022-12-17T08:50:29.061Z,29.03
2022-12-17T08:53:15.142Z,28.63
2022-12-17T08:55:57.676Z,29.60
2022-12-17T08:58:48.986Z,26.67
2022-12-17T09:01:34.277Z,26.20
2022-12-17T09:04:17.043Z,29.20
2022-12-17T09:06:59.629Z,25.17
2022-12-17T09:09:42.137Z,23.77
2022-12-17T09:12:24.653Z,23.70
2022-12-17T09:15:07.219Z,28.57
2022-12-17T09:17:52.385Z,28.40
2022-12-17T09:20:34.974Z,26.77
2022-12-17T09:23:17.520Z,26.90
2022-12-17T09:26:07.746Z,29.30
2022-12-17T09:28:50.275Z,27.93
2022-12-17T09:31:37.301Z,30.80
2022-12-17T09:34:22.834Z,30.23
2022-12-17T09:37:05.362Z,29.20
2022-12-17T09:39:47.871Z,27.03
2022-12-17T09:42:40.171Z,27.90
2022-12-17T09:45:31.145Z,26.90
2022-12-17T09:48:32.089Z,24.73
2022-12-17T09:51:17.924Z,28.77
2022-12-17T09:54:04.584Z,27.80
2022-12-17T09:56:50.616Z,23.90
2022-12-17T09:59:37.784Z,25.23
2022-12-17T10:02:32.125Z,27.43
2022-12-17T10:05:17.115Z,24.53
2022-12-17T10:08:03.377Z,25.27
2022-12-17T10:10:48.631Z,24.83
2022-12-17T10:13:34.881Z,25.63
2022-12-17T10:16:18.392Z,26.70
2022-12-17T10:19:02.199Z,24.67
2022-12-17T10:21:45.733Z,22.27
2022-12-17T10:24:31.523Z,25.57
2022-12-17T10:27:14.262Z,26.80
2022-12-17T10:29:58.944Z,31.50
2022-12-17T10:32:43.323Z,23.97
2022-12-17T10:35:34.901Z,25.30
2022-12-17T10:38:26.053Z,26.70
2022-12-17T10:41:11.717Z,23.90
2022-12-17T10:43:55.686Z,26.50
2022-12-17T10:46:41.041Z,27.10
2022-12-17T10:49:30.423Z,27.00
2022-12-17T10:52:20.442Z,24.10
2022-12-17T10:55:15.643Z,26.33
2022-12-17T10:58:03.472Z,27.70
2022-12-17T11:00:50.766Z,24.70
2022-12-17T11:04:04.613Z,28.00
2022-12-17T11:06:51.695Z,25.47
2022-12-17T11:10:05.287Z,26.70
2022-12-17T11:13:01.724Z,28.30
2022-12-17T11:15:53.249Z,26.70
2022-12-17T11:18:44.564Z,29.23
2022-12-17T11:21:32.651Z,26.53
2022-12-17T11:24:22.194Z,31.83
2022-12-17T11:27:11.583Z,25.33
2022-12-17T11:29:56.792Z,26.63
2022-12-17T11:33:14.903Z,25.67
2022-12-17T11:36:17.081Z,27.03
2022-12-17T11:39:10.489Z,26.07
2022-12-17T11:42:11.746Z,25.83
2022-12-17T11:45:09.203Z,28.93
2022-12-17T11:48:10.650Z,24.47
2022-12-17T11:51:03.628Z,28.43
2022-12-17T11:54:11.908Z,26.37
2022-12-17T11:57:00.540Z,27.93
2022-12-17T11:59:53.485Z,27.13
2022-12-17T12:03:01.089Z,26.80
2022-12-17T12:06:01.174Z,24.53
2022-12-17T12:08:49.568Z,25.57
2022-12-17T12:11:44.355Z,25.87
2022-12-17T12:14:46.866Z,28.80
2022-12-17T12:17:58.694Z,28.10
2022-12-17T12:21:01.702Z,27.60
2022-12-17T12:24:02.645Z,25.17
2022-12-17T12:26:55.941Z,30.33
2022-12-17T12:29:54.046Z,30.73
2022-12-17T12:32:50.397Z,24.30
2022-12-17T12:35:39.066Z,27.70
2022-12-17T12:38:31.090Z,27.03
2022-12-17T12:41:25.933Z,25.23
2022-12-17T12:44:16.930Z,23.10
2022-12-17T12:47:11.304Z,25.80
2022-12-17T12:50:08.978Z,24.70
2022-12-17T12:52:52.940Z,24.07
2022-12-17T12:55:35.514Z,24.57
2022-12-17T12:58:20.072Z,24.47
2022-12-17T13:01:10.608Z,25.07
2022-12-17T13:04:04.774Z,29.10
2022-12-17T13:06:48.993Z,25.43
2022-12-17T13:09:36.292Z,25.80
2022-12-17T13:12:33.964Z,27.63
2022-12-17T13:15:33.067Z,29.20
2022-12-17T13:18:21.730Z,26.97
2022-12-17T13:21:05.026Z,23.60
2022-12-17T13:23:40.868Z,26.37
2022-12-17T13:26:22.314Z,24.50
2022-12-17T13:29:13.561Z,23.97
2022-12-17T13:32:05.661Z,30.43
2022-12-17T13:34:53.425Z,27.70
2022-12-17T13:37:40.073Z,27.60
2022-12-17T13:40:36.038Z,26.07
2022-12-17T13:43:06.280Z,27.00
2022-12-17T13:45:41.542Z,29.53
2022-12-17T13:48:25.486Z,25.67
2022-12-17T13:51:02.410Z,31.97
2022-12-17T13:53:35.496Z,30.43
2022-12-17T13:56:08.330Z,29.37
2022-12-17T13:58:38.724Z,28.70
2022-12-17T14:01:11.476Z,30.80
2022-12-17T14:04:05.300Z,31.57
2022-12-17T14:06:37.552Z,30.17
2022-12-17T14:09:08.546Z,27.40
2022-12-17T14:11:53.842Z,32.40
2022-12-17T14:14:36.515Z,30.23
2022-12-17T14:17:07.030Z,31.27
2022-12-17T14:19:37.424Z,31.10
2022-12-17T14:22:08.288Z,27.67
2022-12-17T14:24:38.437Z,27.80
2022-12-17T14:27:28.948Z,26.40
2022-12-17T14:29:59.030Z,31.87
2022-12-17T14:32:36.974Z,32.77
2022-12-17T14:35:08.259Z,44.87
2022-12-17T14:37:38.410Z,35.20
2022-12-17T14:40:14.029Z,30.70
2022-12-17T14:42:46.864Z,31.70
2022-12-17T14:45:27.666Z,31.73
2022-12-17T14:48:00.827Z,30.00
2022-12-17T14:50:35.737Z,29.13
2022-12-17T14:53:25.813Z,32.73
2022-12-17T14:55:59.120Z,36.20
2022-12-17T14:58:32.077Z,32.73
2022-12-17T15:01:09.882Z,31.83
2022-12-17T15:03:46.184Z,32.23
2022-12-17T15:06:21.321Z,31.20
2022-12-17T15:08:54.102Z,31.33
2022-12-17T15:11:25.945Z,34.10
2022-12-17T15:13:58.568Z,31.20
2022-12-17T15:16:28.591Z,34.97
2022-12-17T15:18:58.695Z,33.77
2022-12-17T15:21:29.764Z,34.50
2022-12-17T15:23:59.819Z,39.20
2022-12-17T15:26:29.884Z,39.80
2022-12-17T15:29:02.564Z,37.43
2022-12-17T15:31:35.671Z,38.83
2022-12-17T15:34:06.319Z,35.97
2022-12-17T15:36:36.443Z,31.07
2022-12-17T15:39:07.185Z,34.90
2022-12-17T15:41:50.041Z,34.53
2022-12-17T15:44:22.644Z,34.70
2022-12-17T15:46:52.629Z,35.27
2022-12-17T15:49:23.055Z,37.37
2022-12-17T15:51:53.055Z,40.30
2022-12-17T15:54:23.086Z,38.77
2022-12-17T15:56:56.382Z,35.10
2022-12-17T15:59:29.007Z,39.30
2022-12-17T16:01:59.101Z,40.50
2022-12-17T16:04:29.259Z,37.77
2022-12-17T16:06:59.296Z,37.83
2022-12-17T16:09:29.994Z,46.50
2022-12-17T16:12:00.854Z,42.47
2022-12-17T16:14:33.475Z,37.20
2022-12-17T16:17:03.600Z,38.47
2022-12-17T16:19:33.733Z,39.70
2022-12-17T16:22:03.751Z,40.53
2022-12-17T16:24:33.871Z,40.80
2022-12-17T16:27:04.788Z,39.60
2022-12-17T16:29:37.642Z,38.63
2022-12-17T16:32:08.158Z,39.73
2022-12-17T16:34:38.200Z,37.90
2022-12-17T16:37:08.628Z,38.50
2022-12-17T16:39:38.690Z,41.27
2022-12-17T16:42:08.898Z,39.70
2022-12-17T16:44:41.501Z,37.80
2022-12-17T16:47:13.077Z,41.00
2022-12-17T16:49:43.267Z,40.40
2022-12-17T16:52:13.316Z,35.73
2022-12-17T16:54:43.546Z,47.27
2022-12-17T16:57:13.624Z,40.33
2022-12-17T16:59:46.291Z,43.93
2022-12-17T17:02:18.654Z,43.60
2022-12-17T17:04:48.895Z,38.40
2022-12-17T17:07:18.887Z,36.20
2022-12-17T17:09:48.911Z,33.80
2022-12-17T17:12:18.956Z,39.30
2022-12-17T17:14:53.304Z,39.60
2022-12-17T17:17:54.573Z,38.07
2022-12-17T17:20:15.968Z,38.07
2022-12-17T17:22:46.206Z,41.33
2022-12-17T17:25:16.283Z,39.20
2022-12-17T17:27:46.289Z,44.30
2022-12-17T17:30:19.239Z,40.77
2022-12-17T17:32:49.238Z,37.80
2022-12-17T17:35:22.080Z,38.13
2022-12-17T17:37:52.066Z,40.10
2022-12-17T17:40:22.250Z,43.77
2022-12-17T17:42:53.216Z,38.80
2022-12-17T17:45:25.964Z,33.43
2022-12-17T17:47:56.565Z,41.03
2022-12-17T17:50:26.587Z,39.50
2022-12-17T17:52:56.562Z,37.20
2022-12-17T17:55:26.556Z,37.63
2022-12-17T17:57:56.680Z,37.30
2022-12-17T18:00:29.686Z,36.17
2022-12-17T18:02:59.813Z,47.60
2022-12-17T18:05:29.976Z,43.77
2022-12-17T18:07:59.973Z,40.00
2022-12-17T18:10:30.005Z,45.47
2022-12-17T18:13:12.503Z,44.00
2022-12-17T18:15:45.195Z,38.40
2022-12-17T18:18:15.303Z,40.37
2022-12-17T18:20:45.398Z,40.17
2022-12-17T18:23:15.443Z,43.07
2022-12-17T18:25:45.626Z,39.23
2022-12-17T18:28:15.607Z,41.97
2022-12-17T18:30:48.186Z,36.30
2022-12-17T18:33:18.174Z,54.60
2022-12-17T18:35:48.161Z,55.50
2022-12-17T18:38:18.236Z,46.30
2022-12-17T18:40:48.253Z,43.50
2022-12-17T18:43:24.474Z,42.37
2022-12-17T18:45:57.162Z,44.33
2022-12-17T18:48:27.784Z,43.97
2022-12-17T18:51:02.589Z,44.90
2022-12-17T18:53:33.640Z,53.90
2022-12-17T18:56:11.560Z,39.23
2022-12-17T18:58:42.052Z,42.40
2022-12-17T19:01:22.494Z,41.73
2022-12-17T19:03:53.353Z,46.20
2022-12-17T19:06:26.173Z,40.27
2022-12-17T19:08:56.196Z,41.30
2022-12-17T19:11:26.539Z,44.10
2022-12-17T19:13:56.767Z,45.17
2022-12-17T19:16:32.116Z,41.50
2022-12-17T19:19:05.600Z,41.33
2022-12-17T19:21:37.173Z,42.27
2022-12-17T19:24:11.024Z,44.77
2022-12-17T19:26:41.205Z,42.17
2022-12-17T19:29:11.585Z,42.33
2022-12-17T19:31:44.774Z,44.80
2022-12-17T19:34:19.022Z,47.70
2022-12-17T19:36:50.040Z,42.37
2022-12-17T19:39:22.348Z,42.83
2022-12-17T19:41:52.791Z,44.90
2022-12-17T19:44:23.125Z,47.17
2022-12-17T19:46:56.191Z,43.40
2022-12-17T19:49:26.364Z,43.60
2022-12-17T19:51:56.380Z,45.10
2022-12-17T19:54:27.466Z,50.63
2022-12-17T19:56:57.460Z,47.67
2022-12-17T19:59:28.414Z,61.30
2022-12-17T20:02:03.678Z,45.00
2022-12-17T20:04:33.858Z,43.20
2022-12-17T20:07:04.000Z,41.97
2022-12-17T20:09:33.962Z,40.10
2022-12-17T20:12:04.002Z,43.63
2022-12-17T20:14:35.360Z,44.77
2022-12-17T20:17:08.621Z,47.07
2022-12-17T20:19:38.790Z,42.37
2022-12-17T20:22:09.101Z,49.37
2022-12-17T20:24:39.685Z,44.53
2022-12-17T20:27:09.707Z,46.73
2022-12-17T20:29:39.931Z,46.97
2022-12-17T20:32:12.639Z,46.90
2022-12-17T20:34:42.726Z,50.70
2022-12-17T20:37:13.072Z,48.33
2022-12-17T20:39:43.187Z,45.47
2022-12-17T20:42:13.220Z,44.80
2022-12-17T20:44:44.110Z,42.07
2022-12-17T20:47:18.053Z,53.13
2022-12-17T20:49:48.073Z,49.27
2022-12-17T20:52:18.138Z,45.17
2022-12-17T20:54:49.353Z,48.10
2022-12-17T20:57:19.436Z,49.83
2022-12-17T20:59:49.477Z,54.07
2022-12-17T21:02:22.242Z,57.50
2022-12-17T21:04:52.404Z,49.87
2022-12-17T21:07:22.416Z,52.80
2022-12-17T21:09:52.426Z,48.47
2022-12-17T21:12:22.503Z,54.93
2022-12-17T21:14:52.518Z,49.60
2022-12-17T21:17:25.071Z,51.50
2022-12-17T21:19:55.987Z,52.33
2022-12-17T21:22:26.502Z,49.27
2022-12-17T21:24:56.496Z,53.03
2022-12-17T21:27:26.518Z,49.33
2022-12-17T21:29:57.965Z,53.53
2022-12-17T21:32:33.872Z,42.83
2022-12-17T21:35:04.202Z,50.47
2022-12-17T21:37:34.256Z,46.73
2022-12-17T21:40:04.662Z,51.67
2022-12-17T21:42:47.178Z,47.63
2022-12-17T21:45:17.816Z,49.23
2022-12-17T21:47:50.572Z,47.07
2022-12-17T21:50:20.993Z,47.50
2022-12-17T21:52:51.034Z,47.13
2022-12-17T21:55:21.057Z,54.50
2022-12-17T21:57:51.051Z,47.47
2022-12-17T22:00:22.137Z,46.20
2022-12-17T22:02:54.732Z,46.40
2022-12-17T22:05:24.942Z,44.27
2022-12-17T22:07:55.001Z,45.90
2022-12-17T22:10:46.541Z,41.77
2022-12-17T22:13:28.583Z,44.57
2022-12-17T22:15:59.287Z,43.30
2022-12-17T22:18:31.924Z,44.53
2022-12-17T22:21:03.702Z,40.63
2022-12-17T22:23:33.814Z,41.37
2022-12-17T22:26:04.952Z,43.10
2022-12-17T22:28:35.009Z,46.77
2022-12-17T22:31:20.225Z,42.87
2022-12-17T22:34:17.429Z,41.77
2022-12-17T22:39:14.155Z,44.30
2022-12-17T22:43:53.399Z,41.80
2022-12-17T22:44:37.805Z,45.53
2022-12-17T22:45:27.990Z,43.40
2022-12-17T22:47:58.024Z,42.13
2022-12-17T22:50:40.350Z,48.97
2022-12-17T22:53:21.001Z,43.67
2022-12-17T22:55:51.840Z,46.57
2022-12-17T22:58:22.069Z,44.90
2022-12-17T23:00:52.150Z,45.80
2022-12-17T23:03:22.322Z,43.07
2022-12-17T23:05:55.014Z,42.30
2022-12-17T23:08:25.010Z,40.27
2022-12-17T23:10:55.027Z,42.27
2022-12-17T23:13:25.004Z,42.13
2022-12-17T23:16:02.566Z,42.97
2022-12-17T23:18:33.038Z,37.70
2022-12-17T23:21:12.310Z,45.60
2022-12-17T23:23:42.864Z,45.47
2022-12-17T23:26:17.985Z,41.27
2022-12-17T23:28:48.892Z,44.47
2022-12-17T23:31:22.428Z,41.37
2022-12-17T23:33:52.443Z,37.53
2022-12-17T23:36:28.443Z,41.60
2022-12-17T23:39:00.434Z,37.87
2022-12-17T23:41:32.724Z,43.53
2022-12-17T23:44:03.926Z,39.57
2022-12-17T23:46:34.330Z,38.87
2022-12-17T23:49:08.772Z,42.20
2022-12-17T23:51:41.387Z,41.33
2022-12-17T23:54:12.097Z,40.40
2022-12-17T23:56:42.160Z,39.67
2022-12-17T23:59:13.362Z,43.43
